< Typhoon 198011 1980 Season Typhoon 198013 >
Typhoon 198012 (NORRIS)
General InformationTrack Information on Google MapsDetailed Wind Information || Disaster Info.ResourceGoogle EarthGE AnimationAtom FeedGeoJSON
Detalied Best Track (Time Zone = UTC)
Year Month Day Hour Lat. Long. Pressure (hPa) Wind (kt) Class Image Chart
1980 8 23 06 16.2 141.9 1006 0 2 -- Chart
1980 8 23 12 16.4 140.8 1004 0 2 -- Chart
1980 8 23 18 16.6 139.6 1004 0 2 -- Chart
1980 8 24 00 16.9 138.4 1002 0 2 -- Chart
1980 8 24 06 17.3 137.4 1000 0 2 -- Chart
1980 8 24 12 17.8 136.4 1000 0 2 -- Chart
1980 8 24 18 18.1 135.5 1000 0 2 -- Chart
1980 8 25 00 18.2 134.7 998 0 2 -- Chart
1980 8 25 06 18.9 133.3 994 35 3 -- Chart
1980 8 25 12 19.3 132.1 990 40 3 -- Chart
1980 8 25 18 19.8 131.0 990 40 3 -- Chart
1980 8 26 00 20.2 129.8 985 45 3 -- Chart
1980 8 26 06 20.7 128.5 985 55 4 -- Chart
1980 8 26 12 21.5 127.2 980 60 4 -- Chart
1980 8 26 18 22.3 126.1 970 65 5 -- Chart
1980 8 27 00 23.1 124.8 960 75 5 -- Chart
1980 8 27 06 23.6 123.7 950 75 5 -- Chart
1980 8 27 12 24.3 122.8 945 95 5 -- Chart
1980 8 27 18 24.8 121.2 970 70 5 -- Chart
1980 8 28 00 25.3 120.2 980 55 4 -- Chart
1980 8 28 06 25.7 119.2 988 40 3 -- Chart
1980 8 28 12 26.1 118.1 994 35 3 -- Chart
1980 8 28 18 26.5 117.0 998 0 2 -- Chart
1980 8 29 00 27.0 117.0 1002 0 6 -- Chart
1980 8 29 06 29.0 118.0 1002 0 6 -- Chart
1980 8 29 12 30.0 119.0 1002 0 6 -- Chart
1980 8 29 18 31.0 120.0 1002 0 6 -- Chart
1980 8 30 00 33.0 122.0 1002 0 6 -- Chart
1980 8 30 06 34.0 125.0 1002 0 6 -- Chart
1980 8 30 12 34.0 128.0 1002 0 6 -- Chart
1980 8 30 18 35.0 132.0 1004 0 6 -- Chart
1980 8 31 00 34.5 133.5 1004 0 6 -- Chart
Japan Meteorological Agency Best Track Data | Correction Date : 1992-10-21
< Typhoon 198011 1980 Season Typhoon 198013 >

Help